CEB143 RPLL-RPVE
Flight info
| Callsign | CEB143 |
|---|---|
| Flight time | 0h 36m |
| Altitude | 25000 |
| Route | VERDE4V VERDE W24 TAPER TAPER7A |
| Aircraft | A320/M-SDE3FGHIRWY/LB1 |
Departure
| Time | 2026-04-30 13:30 |
|---|---|
| Airport | Ninoy Aquino International Airport (RPLL) |
Arrival
| Time | 2026-04-30 14:07 |
|---|---|
| Airport | Godofredo P. Ramos Airport (RPVE) |
| Time | Latitude | Longitude | Altitude | Speed | Heading |
|---|---|---|---|---|---|
| 2026-04-30 12:24 | 14.51652 | 121.01714 | 82 ft | 0 kts | 225° |
| 2026-04-30 12:41 | 14.51659 | 121.01721 | 82 ft | 2 kts | 224° |
| 2026-04-30 12:42 | 14.51670 | 121.01733 | 82 ft | 2 kts | 225° |
| 2026-04-30 12:42 | 14.51680 | 121.01743 | 82 ft | 2 kts | 225° |
| 2026-04-30 12:42 | 14.51688 | 121.01751 | 82 ft | 0 kts | 225° |
| 2026-04-30 12:42 | 14.51699 | 121.01759 | 82 ft | 2 kts | 188° |
| 2026-04-30 12:43 | 14.51714 | 121.01757 | 82 ft | 2 kts | 149° |
| 2026-04-30 12:43 | 14.51720 | 121.01753 | 82 ft | 1 kts | 129° |
| 2026-04-30 12:43 | 14.51723 | 121.01749 | 82 ft | 0 kts | 135° |
| 2026-04-30 12:48 | 14.51721 | 121.01751 | 82 ft | 0 kts | 134° |
| 2026-04-30 12:48 | 14.51714 | 121.01759 | 82 ft | 2 kts | 135° |
| 2026-04-30 12:48 | 14.51688 | 121.01779 | 82 ft | 6 kts | 149° |
| 2026-04-30 12:48 | 14.51632 | 121.01781 | 82 ft | 8 kts | 205° |
| 2026-04-30 12:49 | 14.51585 | 121.01739 | 82 ft | 8 kts | 224° |
| 2026-04-30 12:49 | 14.51538 | 121.01691 | 82 ft | 8 kts | 225° |
| 2026-04-30 12:49 | 14.51494 | 121.01645 | 82 ft | 9 kts | 225° |
| 2026-04-30 12:49 | 14.51472 | 121.01580 | 82 ft | 10 kts | 290° |
| 2026-04-30 12:50 | 14.51524 | 121.01519 | 82 ft | 11 kts | 315° |
| 2026-04-30 12:50 | 14.51585 | 121.01456 | 82 ft | 13 kts | 315° |
| 2026-04-30 12:50 | 14.51651 | 121.01387 | 82 ft | 13 kts | 314° |
| 2026-04-30 12:50 | 14.51723 | 121.01313 | 82 ft | 14 kts | 315° |
| 2026-04-30 12:51 | 14.51798 | 121.01237 | 82 ft | 15 kts | 315° |
| 2026-04-30 12:51 | 14.51873 | 121.01158 | 82 ft | 12 kts | 315° |
| 2026-04-30 12:51 | 14.51903 | 121.01128 | 82 ft | 0 kts | 315° |
| 2026-04-30 12:57 | 14.51906 | 121.01125 | 82 ft | 1 kts | 315° |
| 2026-04-30 12:58 | 14.51923 | 121.01107 | 82 ft | 4 kts | 315° |
| 2026-04-30 12:58 | 14.51955 | 121.01074 | 82 ft | 7 kts | 315° |
| 2026-04-30 12:58 | 14.52001 | 121.01025 | 82 ft | 11 kts | 314° |
| 2026-04-30 12:58 | 14.52060 | 121.00965 | 82 ft | 12 kts | 315° |
| 2026-04-30 12:59 | 14.52124 | 121.00899 | 82 ft | 13 kts | 315° |
| 2026-04-30 12:59 | 14.52193 | 121.00828 | 82 ft | 14 kts | 314° |
| 2026-04-30 12:59 | 14.52265 | 121.00753 | 82 ft | 15 kts | 315° |
| 2026-04-30 12:59 | 14.52342 | 121.00673 | 82 ft | 15 kts | 316° |
| 2026-04-30 13:00 | 14.52422 | 121.00590 | 82 ft | 16 kts | 314° |
| 2026-04-30 13:00 | 14.52503 | 121.00507 | 82 ft | 14 kts | 315° |
| 2026-04-30 13:00 | 14.52547 | 121.00428 | 82 ft | 11 kts | 270° |
| 2026-04-30 13:00 | 14.52541 | 121.00356 | 82 ft | 7 kts | 266° |
| 2026-04-30 13:01 | 14.52540 | 121.00336 | 82 ft | 0 kts | 267° |
| 2026-04-30 13:08 | 14.52540 | 121.00326 | 82 ft | 2 kts | 267° |
| 2026-04-30 13:08 | 14.52538 | 121.00294 | 82 ft | 6 kts | 267° |
| 2026-04-30 13:08 | 14.52514 | 121.00258 | 82 ft | 7 kts | 174° |
| 2026-04-30 13:09 | 14.52466 | 121.00299 | 82 ft | 10 kts | 134° |
| 2026-04-30 13:09 | 14.52428 | 121.00339 | 82 ft | 0 kts | 135° |
| 2026-04-30 13:09 | 14.52427 | 121.00339 | 82 ft | 0 kts | 135° |
| 2026-04-30 13:29 | 14.52415 | 121.00352 | 82 ft | 13 kts | 134° |
| 2026-04-30 13:29 | 14.51401 | 121.01405 | 262 ft | 165 kts | 133° |
| 2026-04-30 13:30 | 14.48886 | 121.03971 | 2548 ft | 174 kts | 131° |
| 2026-04-30 13:31 | 14.47064 | 121.05888 | 3466 ft | 202 kts | 131° |
| 2026-04-30 13:31 | 14.43676 | 121.09436 | 4747 ft | 260 kts | 136° |
| 2026-04-30 13:32 | 14.40051 | 121.10298 | 6003 ft | 289 kts | 185° |
| 2026-04-30 13:32 | 14.36050 | 121.09706 | 7679 ft | 295 kts | 185° |
| 2026-04-30 13:33 | 14.31959 | 121.09237 | 9187 ft | 298 kts | 182° |
| 2026-04-30 13:33 | 14.27787 | 121.08875 | 10594 ft | 306 kts | 181° |
| 2026-04-30 13:34 | 14.25612 | 121.08707 | 10919 ft | 323 kts | 181° |
| 2026-04-30 13:34 | 14.18390 | 121.08167 | 11944 ft | 362 kts | 182° |
| 2026-04-30 13:35 | 14.15851 | 121.07976 | 12529 ft | 365 kts | 182° |
| 2026-04-30 13:35 | 14.10807 | 121.07174 | 13584 ft | 369 kts | 200° |
| 2026-04-30 13:36 | 14.06253 | 121.04792 | 13195 ft | 366 kts | 207° |
| 2026-04-30 13:36 | 14.04008 | 121.03513 | 12978 ft | 368 kts | 207° |
| 2026-04-30 13:36 | 13.99496 | 121.00934 | 12971 ft | 370 kts | 207° |
| 2026-04-30 13:37 | 13.97244 | 120.99643 | 12966 ft | 370 kts | 207° |
| 2026-04-30 13:37 | 13.92717 | 120.97060 | 12949 ft | 371 kts | 205° |
| 2026-04-30 13:38 | 13.87755 | 120.96539 | 12957 ft | 363 kts | 167° |
| 2026-04-30 13:38 | 13.85276 | 120.97076 | 12951 ft | 362 kts | 166° |
| 2026-04-30 13:38 | 13.80290 | 120.98117 | 12951 ft | 363 kts | 167° |
| 2026-04-30 13:39 | 13.75232 | 120.99022 | 13636 ft | 372 kts | 168° |
| 2026-04-30 13:39 | 13.70113 | 120.99875 | 14780 ft | 374 kts | 169° |
| 2026-04-30 13:40 | 13.67518 | 121.00300 | 15301 ft | 377 kts | 169° |
| 2026-04-30 13:40 | 13.64920 | 121.00723 | 15784 ft | 380 kts | 169° |
| 2026-04-30 13:40 | 13.62298 | 121.01150 | 16272 ft | 382 kts | 169° |
| 2026-04-30 13:40 | 13.59631 | 121.01585 | 16762 ft | 385 kts | 169° |
| 2026-04-30 13:41 | 13.56982 | 121.02014 | 17226 ft | 388 kts | 169° |
| 2026-04-30 13:41 | 13.54295 | 121.02450 | 17669 ft | 391 kts | 169° |
| 2026-04-30 13:41 | 13.51644 | 121.03075 | 18095 ft | 391 kts | 160° |
| 2026-04-30 13:41 | 13.49110 | 121.04152 | 18530 ft | 392 kts | 151° |
| 2026-04-30 13:42 | 13.46784 | 121.05591 | 18951 ft | 393 kts | 144° |
| 2026-04-30 13:42 | 13.44527 | 121.07188 | 19361 ft | 396 kts | 143° |
| 2026-04-30 13:42 | 13.39962 | 121.10460 | 19983 ft | 400 kts | 144° |
| 2026-04-30 13:43 | 13.37679 | 121.12077 | 20002 ft | 400 kts | 144° |
| 2026-04-30 13:43 | 13.35376 | 121.13699 | 20006 ft | 400 kts | 144° |
| 2026-04-30 13:43 | 13.33068 | 121.15315 | 20008 ft | 400 kts | 144° |
| 2026-04-30 13:43 | 13.30788 | 121.16910 | 20009 ft | 400 kts | 144° |
| 2026-04-30 13:44 | 13.28471 | 121.18531 | 20003 ft | 400 kts | 144° |
| 2026-04-30 13:44 | 13.26172 | 121.20141 | 19995 ft | 399 kts | 144° |
| 2026-04-30 13:44 | 13.23864 | 121.21759 | 19988 ft | 399 kts | 144° |
| 2026-04-30 13:44 | 13.21568 | 121.23367 | 19975 ft | 399 kts | 144° |
| 2026-04-30 13:45 | 13.16964 | 121.26595 | 19963 ft | 399 kts | 144° |
| 2026-04-30 13:45 | 13.14686 | 121.28191 | 19970 ft | 399 kts | 144° |
| 2026-04-30 13:45 | 13.12382 | 121.29805 | 19973 ft | 399 kts | 144° |
| 2026-04-30 13:46 | 13.10082 | 121.31417 | 19976 ft | 399 kts | 144° |
| 2026-04-30 13:46 | 13.07785 | 121.33026 | 19979 ft | 400 kts | 144° |
| 2026-04-30 13:46 | 13.05496 | 121.34628 | 19966 ft | 399 kts | 144° |
| 2026-04-30 13:46 | 13.03197 | 121.36237 | 19653 ft | 398 kts | 144° |
| 2026-04-30 13:47 | 13.00917 | 121.37833 | 19299 ft | 395 kts | 144° |
| 2026-04-30 13:47 | 12.98624 | 121.39435 | 18941 ft | 393 kts | 144° |
| 2026-04-30 13:47 | 12.96383 | 121.41003 | 18587 ft | 391 kts | 144° |
| 2026-04-30 13:47 | 12.94133 | 121.42577 | 18228 ft | 389 kts | 143° |
| 2026-04-30 13:48 | 12.91905 | 121.44134 | 17873 ft | 387 kts | 143° |
| 2026-04-30 13:48 | 12.89687 | 121.45685 | 17519 ft | 384 kts | 143° |
| 2026-04-30 13:48 | 12.87487 | 121.47223 | 17164 ft | 382 kts | 143° |
| 2026-04-30 13:48 | 12.85262 | 121.48778 | 16807 ft | 380 kts | 143° |
| 2026-04-30 13:49 | 12.83085 | 121.50301 | 16454 ft | 378 kts | 143° |
| 2026-04-30 13:49 | 12.80910 | 121.51820 | 16099 ft | 376 kts | 143° |
| 2026-04-30 13:49 | 12.78749 | 121.53330 | 15747 ft | 374 kts | 143° |
| 2026-04-30 13:49 | 12.76627 | 121.54811 | 15400 ft | 372 kts | 143° |
| 2026-04-30 13:50 | 12.74472 | 121.56316 | 15046 ft | 370 kts | 143° |
| 2026-04-30 13:50 | 12.70239 | 121.59271 | 14349 ft | 367 kts | 143° |
| 2026-04-30 13:50 | 12.68144 | 121.60734 | 14000 ft | 365 kts | 143° |
| 2026-04-30 13:51 | 12.66035 | 121.62205 | 13644 ft | 364 kts | 143° |
| 2026-04-30 13:51 | 12.63952 | 121.63657 | 13294 ft | 362 kts | 143° |
| 2026-04-30 13:51 | 12.61863 | 121.65115 | 12938 ft | 360 kts | 143° |
| 2026-04-30 13:51 | 12.59822 | 121.66537 | 12591 ft | 357 kts | 143° |
| 2026-04-30 13:52 | 12.57761 | 121.67976 | 12238 ft | 356 kts | 143° |
| 2026-04-30 13:52 | 12.55720 | 121.69399 | 11885 ft | 354 kts | 143° |
| 2026-04-30 13:52 | 12.53691 | 121.70813 | 11533 ft | 352 kts | 143° |
| 2026-04-30 13:52 | 12.51656 | 121.72231 | 11175 ft | 349 kts | 143° |
| 2026-04-30 13:53 | 12.49647 | 121.73632 | 10820 ft | 348 kts | 143° |
| 2026-04-30 13:53 | 12.48321 | 121.74557 | 10585 ft | 347 kts | 143° |
| 2026-04-30 13:53 | 12.45666 | 121.76409 | 10123 ft | 344 kts | 143° |
| 2026-04-30 13:53 | 12.43694 | 121.77782 | 9995 ft | 343 kts | 143° |
| 2026-04-30 13:54 | 12.41706 | 121.79166 | 9942 ft | 343 kts | 143° |
| 2026-04-30 13:54 | 12.39747 | 121.80527 | 9703 ft | 340 kts | 143° |
| 2026-04-30 13:54 | 12.37744 | 121.81782 | 9426 ft | 331 kts | 154° |
| 2026-04-30 13:54 | 12.35546 | 121.82319 | 9165 ft | 326 kts | 174° |
| 2026-04-30 13:55 | 12.33292 | 121.82101 | 8907 ft | 320 kts | 188° |
| 2026-04-30 13:55 | 12.31136 | 121.81631 | 8647 ft | 312 kts | 189° |
| 2026-04-30 13:55 | 12.29009 | 121.81148 | 8380 ft | 305 kts | 189° |
| 2026-04-30 13:55 | 12.26977 | 121.80689 | 8118 ft | 295 kts | 189° |
| 2026-04-30 13:56 | 12.24987 | 121.80247 | 7849 ft | 282 kts | 189° |
| 2026-04-30 13:56 | 12.23104 | 121.79832 | 7584 ft | 271 kts | 188° |
| 2026-04-30 13:56 | 12.21277 | 121.79432 | 7317 ft | 263 kts | 188° |
| 2026-04-30 13:56 | 12.19515 | 121.79050 | 7057 ft | 259 kts | 188° |
| 2026-04-30 13:57 | 12.17746 | 121.78668 | 6794 ft | 256 kts | 188° |
| 2026-04-30 13:57 | 12.16015 | 121.78294 | 6534 ft | 253 kts | 188° |
| 2026-04-30 13:57 | 12.14288 | 121.77922 | 6275 ft | 251 kts | 188° |
| 2026-04-30 13:57 | 12.12576 | 121.77552 | 6012 ft | 249 kts | 188° |
| 2026-04-30 13:58 | 12.10881 | 121.77186 | 5749 ft | 247 kts | 188° |
| 2026-04-30 13:58 | 12.07503 | 121.76459 | 5222 ft | 247 kts | 188° |
| 2026-04-30 13:58 | 12.05828 | 121.76096 | 4960 ft | 246 kts | 188° |
| 2026-04-30 13:59 | 12.04143 | 121.75732 | 4699 ft | 248 kts | 187° |
| 2026-04-30 13:59 | 12.02425 | 121.75362 | 4436 ft | 251 kts | 187° |
| 2026-04-30 13:59 | 12.00731 | 121.74995 | 4174 ft | 250 kts | 187° |
| 2026-04-30 13:59 | 11.99005 | 121.74622 | 3908 ft | 250 kts | 187° |
| 2026-04-30 14:00 | 11.97300 | 121.74255 | 3790 ft | 249 kts | 187° |
| 2026-04-30 14:00 | 11.93896 | 121.73522 | 3785 ft | 250 kts | 188° |
| 2026-04-30 14:00 | 11.92179 | 121.73170 | 3786 ft | 248 kts | 182° |
| 2026-04-30 14:01 | 11.90492 | 121.73267 | 3784 ft | 240 kts | 159° |
| 2026-04-30 14:01 | 11.88964 | 121.73920 | 3792 ft | 236 kts | 148° |
| 2026-04-30 14:01 | 11.87996 | 121.74434 | 3790 ft | 235 kts | 147° |
| 2026-04-30 14:01 | 11.86065 | 121.75477 | 3774 ft | 233 kts | 147° |
| 2026-04-30 14:02 | 11.84636 | 121.76258 | 3515 ft | 230 kts | 141° |
| 2026-04-30 14:02 | 11.83637 | 121.77441 | 3146 ft | 220 kts | 104° |
| 2026-04-30 14:02 | 11.83673 | 121.78944 | 2820 ft | 214 kts | 66° |
| 2026-04-30 14:02 | 11.84442 | 121.80237 | 2548 ft | 213 kts | 57° |
| 2026-04-30 14:03 | 11.85257 | 121.81507 | 2314 ft | 212 kts | 59° |
| 2026-04-30 14:03 | 11.86019 | 121.82806 | 2291 ft | 214 kts | 60° |
| 2026-04-30 14:03 | 11.86744 | 121.84132 | 2283 ft | 214 kts | 62° |
| 2026-04-30 14:03 | 11.87470 | 121.85450 | 2101 ft | 209 kts | 61° |
| 2026-04-30 14:04 | 11.88162 | 121.86701 | 1775 ft | 198 kts | 62° |
| 2026-04-30 14:04 | 11.88800 | 121.87914 | 1536 ft | 183 kts | 63° |
| 2026-04-30 14:04 | 11.89342 | 121.89017 | 1284 ft | 172 kts | 64° |
| 2026-04-30 14:04 | 11.89864 | 121.90087 | 991 ft | 164 kts | 66° |
| 2026-04-30 14:05 | 11.90321 | 121.91109 | 798 ft | 152 kts | 65° |
| 2026-04-30 14:05 | 11.90776 | 121.92014 | 625 ft | 136 kts | 63° |
| 2026-04-30 14:05 | 11.91210 | 121.92844 | 476 ft | 131 kts | 63° |
| 2026-04-30 14:05 | 11.91628 | 121.93674 | 277 ft | 130 kts | 65° |
| 2026-04-30 14:06 | 11.92019 | 121.94504 | 133 ft | 127 kts | 65° |
| 2026-04-30 14:06 | 11.92715 | 121.95916 | 48 ft | 55 kts | 63° |
| 2026-04-30 14:07 | 11.92926 | 121.96336 | 63 ft | 14 kts | 64° |
| 2026-04-30 14:07 | 11.92952 | 121.96418 | 64 ft | 11 kts | 87° |
| 2026-04-30 14:07 | 11.92917 | 121.96474 | 64 ft | 7 kts | 148° |
| 2026-04-30 14:08 | 11.92799 | 121.96519 | 62 ft | 11 kts | 210° |
| 2026-04-30 14:08 | 11.92756 | 121.96452 | 61 ft | 12 kts | 242° |
| 2026-04-30 14:08 | 11.92701 | 121.96364 | 60 ft | 4 kts | 225° |
| 2026-04-30 14:09 | 11.92670 | 121.96354 | 59 ft | 3 kts | 156° |
| 2026-04-30 14:09 | 11.92652 | 121.96365 | 59 ft | 2 kts | 151° |
| 2026-04-30 14:09 | 11.92648 | 121.96367 | 59 ft | 0 kts | 152° |